createdAt,value
2019-03-31T00:00:10.156Z,17.90
2019-03-31T00:02:40.295Z,17.80
2019-03-31T00:05:09.456Z,17.70
2019-03-31T00:07:39.974Z,18.50
2019-03-31T00:10:09.332Z,19.13
2019-03-31T00:12:39.422Z,18.07
2019-03-31T00:15:09.797Z,17.63
2019-03-31T00:17:39.877Z,19.00
2019-03-31T00:20:09.142Z,18.70
2019-03-31T00:22:39.505Z,19.10
2019-03-31T00:25:09.746Z,18.70
2019-03-31T00:27:39.813Z,19.23
2019-03-31T00:30:10.297Z,18.67
2019-03-31T00:32:40.394Z,16.30
2019-03-31T00:35:09.821Z,18.30
2019-03-31T00:37:40.193Z,16.53
2019-03-31T00:40:09.405Z,16.70
2019-03-31T00:42:39.461Z,17.57
2019-03-31T00:45:10.042Z,17.50
2019-03-31T00:47:40.252Z,17.77
2019-03-31T00:50:09.415Z,19.00
2019-03-31T00:52:39.810Z,18.80
2019-03-31T00:55:10.221Z,20.73
2019-03-31T00:57:40.311Z,20.70
2019-03-31T01:00:11.451Z,20.67
2019-03-31T01:02:41.544Z,20.97
2019-03-31T01:05:11.821Z,19.93
2019-03-31T01:07:42.468Z,18.90
2019-03-31T01:10:13.701Z,16.73
2019-03-31T01:12:42.843Z,16.47
2019-03-31T01:15:17.483Z,16.63
2019-03-31T01:17:46.632Z,16.37
2019-03-31T01:20:15.777Z,16.60
2019-03-31T01:22:46.213Z,15.87
2019-03-31T01:25:16.589Z,15.43
2019-03-31T01:27:46.774Z,18.37
2019-03-31T01:30:18.137Z,17.63
2019-03-31T01:32:47.291Z,16.57
2019-03-31T01:35:16.686Z,15.17
2019-03-31T01:37:47.347Z,16.07
2019-03-31T01:40:16.500Z,18.23
2019-03-31T01:42:46.654Z,15.93
2019-03-31T01:45:16.217Z,17.47
2019-03-31T01:47:46.305Z,16.53
2019-03-31T01:50:16.613Z,17.80
2019-03-31T01:52:47.073Z,17.87
2019-03-31T01:55:16.233Z,17.87
2019-03-31T01:57:46.312Z,18.03
2019-03-31T02:00:47.987Z,18.13
2019-03-31T02:03:18.250Z,17.43
2019-03-31T02:05:48.622Z,21.50
2019-03-31T02:08:19.169Z,20.43
2019-03-31T02:10:49.325Z,20.10
2019-03-31T02:13:21.057Z,19.53
2019-03-31T02:15:50.847Z,20.33
2019-03-31T02:18:20.933Z,18.47
2019-03-31T02:20:52.773Z,16.10
2019-03-31T02:23:21.964Z,17.53
2019-03-31T02:25:52.101Z,17.17
2019-03-31T02:28:22.183Z,17.37
2019-03-31T02:30:52.370Z,16.73
2019-03-31T02:33:22.768Z,17.60
2019-03-31T02:35:52.844Z,17.37
2019-03-31T02:38:22.105Z,16.50
2019-03-31T02:40:52.774Z,18.63
2019-03-31T02:43:23.153Z,17.30
2019-03-31T02:45:53.598Z,17.90
2019-03-31T02:48:23.027Z,16.40
2019-03-31T02:50:55.636Z,16.97
2019-03-31T02:53:26.373Z,17.67
2019-03-31T02:55:58.309Z,17.20
2019-03-31T02:58:28.782Z,17.50
2019-03-31T03:00:59.270Z,18.30
2019-03-31T03:03:30.045Z,17.33
2019-03-31T03:06:03.266Z,16.13
2019-03-31T03:08:34.910Z,17.53
2019-03-31T03:11:05.438Z,17.47
2019-03-31T03:13:36.898Z,16.53
2019-03-31T03:16:19.488Z,17.60
2019-03-31T03:18:50.347Z,16.33
2019-03-31T03:21:24.197Z,17.67
2019-03-31T03:23:52.817Z,18.07
2019-03-31T03:26:22.957Z,16.40
2019-03-31T03:28:53.256Z,17.20
2019-03-31T03:31:22.570Z,17.20
2019-03-31T03:33:52.165Z,17.03
2019-03-31T03:36:22.255Z,17.27
2019-03-31T03:38:52.318Z,17.03
2019-03-31T03:41:22.700Z,16.43
2019-03-31T03:43:56.903Z,17.17
2019-03-31T03:46:24.490Z,16.67
2019-03-31T03:48:54.996Z,17.17
2019-03-31T03:51:25.053Z,18.27
2019-03-31T03:53:55.157Z,17.83
2019-03-31T03:56:29.000Z,17.93
2019-03-31T03:58:56.347Z,18.10
2019-03-31T04:01:31.104Z,16.87
2019-03-31T04:04:01.464Z,17.37
2019-03-31T04:06:31.538Z,17.27
2019-03-31T04:09:01.675Z,17.90
2019-03-31T04:11:32.063Z,17.97
2019-03-31T04:14:02.154Z,17.23
2019-03-31T04:16:32.329Z,18.37
2019-03-31T04:19:03.533Z,16.57
2019-03-31T04:21:33.608Z,16.80
2019-03-31T04:24:02.819Z,16.47
2019-03-31T04:26:33.155Z,16.03
2019-03-31T04:29:02.290Z,17.00
2019-03-31T04:31:32.404Z,18.33
2019-03-31T04:34:02.822Z,17.97
2019-03-31T04:36:32.910Z,18.50
2019-03-31T04:39:02.990Z,18.10
2019-03-31T04:41:33.363Z,16.00
2019-03-31T04:44:02.515Z,17.90
2019-03-31T04:46:32.733Z,17.53
2019-03-31T04:49:03.098Z,16.60
2019-03-31T04:51:33.186Z,17.43
2019-03-31T04:54:02.382Z,17.43
2019-03-31T04:56:32.822Z,17.13
2019-03-31T04:59:02.889Z,17.37
2019-03-31T05:01:33.007Z,17.50
2019-03-31T05:04:04.972Z,18.20
2019-03-31T05:06:34.197Z,17.40
2019-03-31T05:09:05.842Z,17.93
2019-03-31T05:11:36.332Z,17.57
2019-03-31T05:14:06.400Z,18.40
2019-03-31T05:16:35.612Z,17.20
2019-03-31T05:19:05.969Z,17.60
2019-03-31T05:21:36.897Z,18.73
2019-03-31T05:24:07.000Z,17.90
2019-03-31T05:26:36.470Z,19.10
2019-03-31T05:29:06.554Z,18.00
2019-03-31T05:31:35.721Z,19.37
2019-03-31T05:34:18.526Z,20.73
2019-03-31T05:36:37.800Z,21.70
2019-03-31T05:39:08.252Z,20.73
2019-03-31T05:41:38.604Z,20.23
2019-03-31T05:44:08.738Z,21.27
2019-03-31T05:46:37.988Z,19.00
2019-03-31T05:49:08.371Z,19.77
2019-03-31T05:51:38.616Z,19.43
2019-03-31T05:54:09.594Z,20.37
2019-03-31T05:56:39.955Z,20.20
2019-03-31T05:59:09.108Z,21.80
2019-03-31T06:01:39.207Z,21.43
2019-03-31T06:04:08.629Z,23.17
2019-03-31T06:06:37.787Z,21.23
2019-03-31T06:09:08.124Z,20.43
2019-03-31T06:11:38.481Z,20.40
2019-03-31T06:14:07.717Z,21.43
2019-03-31T06:16:37.808Z,22.33
2019-03-31T06:19:09.101Z,22.30
2019-03-31T06:21:40.054Z,21.27
2019-03-31T06:26:34.496Z,20.73
2019-03-31T06:29:04.296Z,20.20
2019-03-31T06:31:34.446Z,19.53
2019-03-31T06:34:04.830Z,19.73
2019-03-31T06:36:35.140Z,19.90
2019-03-31T06:39:07.147Z,23.23
2019-03-31T06:41:36.584Z,21.57
2019-03-31T06:44:05.892Z,19.90
2019-03-31T06:46:36.101Z,24.00
2019-03-31T06:49:06.969Z,23.47
2019-03-31T06:51:36.210Z,21.77
2019-03-31T06:54:05.396Z,24.87
2019-03-31T06:56:35.801Z,23.93
2019-03-31T06:59:05.907Z,23.20
2019-03-31T07:01:35.056Z,25.23
2019-03-31T07:04:05.528Z,26.33
2019-03-31T07:06:35.645Z,26.87
2019-03-31T07:09:07.139Z,25.47
2019-03-31T07:11:36.576Z,23.73
2019-03-31T07:14:06.769Z,26.23
2019-03-31T07:16:35.920Z,24.73
2019-03-31T07:19:06.306Z,24.67
2019-03-31T07:21:36.196Z,25.83
2019-03-31T07:24:07.157Z,25.13
2019-03-31T07:26:36.592Z,25.10
2019-03-31T07:29:06.698Z,24.77
2019-03-31T07:31:35.852Z,27.37
2019-03-31T07:34:06.394Z,29.23
2019-03-31T07:36:35.952Z,29.97
2019-03-31T07:39:06.651Z,31.07
2019-03-31T07:41:36.226Z,32.63
2019-03-31T07:44:06.280Z,32.13
2019-03-31T07:46:36.386Z,33.17
2019-03-31T07:49:05.879Z,37.13
2019-03-31T07:51:37.524Z,35.20
2019-03-31T07:54:07.832Z,36.90
2019-03-31T07:56:37.874Z,37.13
2019-03-31T07:59:08.002Z,39.30
2019-03-31T08:01:38.361Z,38.33
2019-03-31T08:04:08.451Z,39.47
2019-03-31T08:06:38.646Z,36.80
2019-03-31T08:09:09.097Z,41.37
2019-03-31T08:11:39.200Z,39.50
2019-03-31T08:14:09.352Z,39.60
2019-03-31T08:16:39.722Z,40.60
2019-03-31T08:19:08.892Z,41.60
2019-03-31T08:21:39.032Z,44.00
2019-03-31T08:24:10.285Z,42.57
2019-03-31T08:26:41.272Z,44.83
2019-03-31T08:29:11.418Z,44.53
2019-03-31T08:31:41.807Z,46.63
2019-03-31T08:34:11.895Z,46.10
2019-03-31T08:36:41.173Z,46.23
2019-03-31T08:39:11.556Z,47.33
2019-03-31T08:41:41.637Z,46.00
2019-03-31T08:44:11.778Z,45.13
2019-03-31T08:46:42.154Z,47.13
2019-03-31T08:49:12.265Z,46.63
2019-03-31T08:51:42.373Z,46.33
2019-03-31T08:54:12.732Z,44.80
2019-03-31T08:56:42.834Z,44.80
2019-03-31T08:59:12.999Z,46.03
2019-03-31T09:01:43.105Z,47.27
2019-03-31T09:04:13.212Z,44.73
2019-03-31T09:06:42.808Z,45.87
2019-03-31T09:09:13.189Z,46.93
2019-03-31T09:11:42.345Z,44.43
2019-03-31T09:14:12.563Z,44.70
2019-03-31T09:16:42.928Z,43.77
2019-03-31T09:19:13.021Z,43.40
2019-03-31T09:21:42.211Z,44.07
2019-03-31T09:24:12.582Z,44.67
2019-03-31T09:26:42.785Z,47.07
2019-03-31T09:29:13.861Z,44.23
2019-03-31T09:31:44.232Z,44.87
2019-03-31T09:34:14.362Z,43.67
2019-03-31T09:36:44.498Z,45.63
2019-03-31T09:39:15.015Z,43.77
2019-03-31T09:41:45.118Z,45.00
2019-03-31T09:44:15.242Z,42.27
2019-03-31T09:46:45.691Z,42.77
2019-03-31T09:49:15.786Z,41.43
2019-03-31T09:51:46.049Z,40.97
2019-03-31T09:54:15.465Z,42.90
2019-03-31T09:56:45.596Z,42.57
2019-03-31T09:59:15.741Z,43.90
2019-03-31T10:01:46.101Z,39.83
2019-03-31T10:04:16.214Z,39.00
2019-03-31T10:06:45.404Z,41.83
2019-03-31T10:09:15.790Z,40.27
2019-03-31T10:11:45.887Z,41.97
2019-03-31T10:14:16.130Z,43.03
2019-03-31T10:16:46.481Z,40.60
2019-03-31T10:19:15.641Z,41.60
2019-03-31T10:21:45.756Z,38.83
2019-03-31T10:24:16.181Z,40.90
2019-03-31T10:26:46.332Z,42.10
2019-03-31T10:29:15.541Z,41.63
2019-03-31T10:31:48.237Z,40.70
2019-03-31T10:34:18.332Z,43.57
2019-03-31T10:36:48.455Z,40.37
2019-03-31T10:39:18.862Z,42.20
2019-03-31T10:41:48.954Z,42.97
2019-03-31T10:44:19.155Z,41.33
2019-03-31T10:46:49.529Z,39.13
2019-03-31T10:49:20.185Z,39.83
2019-03-31T10:51:49.428Z,40.90
2019-03-31T10:54:18.872Z,39.90
2019-03-31T10:56:48.957Z,40.20
2019-03-31T10:59:19.102Z,39.80
2019-03-31T11:01:49.467Z,42.43
2019-03-31T11:04:19.552Z,42.80
2019-03-31T11:06:58.812Z,39.13
2019-03-31T11:09:21.043Z,38.67
2019-03-31T11:11:51.135Z,40.23
2019-03-31T11:14:21.303Z,40.17
2019-03-31T11:16:52.274Z,40.17
2019-03-31T11:19:21.434Z,40.80
2019-03-31T11:22:20.109Z,38.97
2019-03-31T11:24:49.282Z,41.07
2019-03-31T11:27:19.376Z,38.83
2019-03-31T11:29:49.777Z,36.10
2019-03-31T11:32:20.370Z,39.33
2019-03-31T11:34:51.334Z,38.33
2019-03-31T11:37:22.257Z,36.30
2019-03-31T11:39:52.677Z,37.37
2019-03-31T11:42:22.806Z,36.77
2019-03-31T11:44:53.889Z,35.60
2019-03-31T11:47:23.996Z,35.67
2019-03-31T11:49:58.423Z,36.67
2019-03-31T11:52:28.518Z,35.13
2019-03-31T11:54:58.728Z,34.27
2019-03-31T11:57:28.997Z,34.90
2019-03-31T11:59:59.121Z,33.37
2019-03-31T12:02:29.910Z,32.57
2019-03-31T12:05:00.151Z,30.90
2019-03-31T12:07:29.532Z,31.93
2019-03-31T12:09:59.633Z,30.83
2019-03-31T12:12:30.037Z,31.30
2019-03-31T12:15:00.725Z,29.60
2019-03-31T12:17:31.306Z,31.30
2019-03-31T12:20:02.353Z,30.63
2019-03-31T12:22:32.920Z,30.33
2019-03-31T12:25:02.079Z,30.67
2019-03-31T12:27:32.201Z,28.47
2019-03-31T12:30:02.574Z,29.30
2019-03-31T12:32:32.661Z,28.00
2019-03-31T12:35:01.873Z,25.77
2019-03-31T12:37:42.322Z,26.43
2019-03-31T12:40:06.401Z,25.93
2019-03-31T12:42:35.623Z,24.60
2019-03-31T12:45:06.356Z,25.17
2019-03-31T12:47:35.650Z,26.53
2019-03-31T12:50:06.155Z,24.37
2019-03-31T12:52:46.188Z,24.63
2019-03-31T12:55:07.614Z,25.57
2019-03-31T12:57:36.900Z,23.13
2019-03-31T13:00:08.647Z,23.40
2019-03-31T13:02:38.787Z,22.43
2019-03-31T13:05:09.090Z,22.23
2019-03-31T13:07:39.999Z,21.20
2019-03-31T13:10:09.264Z,23.10
2019-03-31T13:12:39.366Z,21.40
2019-03-31T13:15:09.327Z,20.03
2019-03-31T13:17:39.617Z,22.30
2019-03-31T13:20:08.906Z,23.10
2019-03-31T13:22:39.270Z,21.67
2019-03-31T13:25:09.506Z,19.97
2019-03-31T13:27:39.652Z,21.33
2019-03-31T13:30:09.002Z,20.30
2019-03-31T13:32:39.336Z,19.80
2019-03-31T13:35:08.959Z,19.07
2019-03-31T13:37:39.033Z,20.33
2019-03-31T13:40:10.759Z,18.90
2019-03-31T13:42:41.129Z,19.00
2019-03-31T13:45:11.427Z,20.03
2019-03-31T13:47:41.600Z,18.73
2019-03-31T13:50:13.045Z,19.17
2019-03-31T13:52:42.219Z,18.13
2019-03-31T13:55:12.610Z,18.57
2019-03-31T13:57:42.970Z,18.27
2019-03-31T14:00:12.914Z,19.87
2019-03-31T14:02:42.977Z,18.13
2019-03-31T14:05:13.662Z,17.03
2019-03-31T14:07:45.845Z,17.87
2019-03-31T14:10:17.134Z,16.87
2019-03-31T14:12:51.108Z,16.20
2019-03-31T14:15:21.673Z,17.73
2019-03-31T14:17:52.315Z,19.07
2019-03-31T14:20:21.608Z,18.10
2019-03-31T14:22:54.172Z,17.60
2019-03-31T14:25:24.289Z,18.50
2019-03-31T14:27:53.437Z,17.33
2019-03-31T14:30:22.818Z,16.70
2019-03-31T14:32:57.800Z,17.70
2019-03-31T14:35:28.245Z,17.60
2019-03-31T14:37:58.355Z,16.87
2019-03-31T14:40:28.528Z,17.27
2019-03-31T14:43:00.086Z,17.17
2019-03-31T14:45:30.097Z,18.47
2019-03-31T14:48:00.602Z,17.10
2019-03-31T14:50:35.367Z,16.00
2019-03-31T14:53:06.130Z,16.23
2019-03-31T14:55:35.312Z,16.77
2019-03-31T14:58:07.932Z,16.60
2019-03-31T15:00:38.104Z,16.47
2019-03-31T15:03:08.240Z,15.90
2019-03-31T15:05:37.440Z,15.80
2019-03-31T15:08:07.669Z,15.63
2019-03-31T15:10:38.052Z,15.13
2019-03-31T15:13:08.339Z,16.50
2019-03-31T15:15:38.439Z,16.00
2019-03-31T15:18:09.013Z,16.67
2019-03-31T15:20:39.193Z,14.77
2019-03-31T15:23:08.367Z,14.83
2019-03-31T15:25:38.976Z,15.53
2019-03-31T15:28:08.162Z,15.60
2019-03-31T15:30:38.267Z,16.73
2019-03-31T15:33:08.650Z,14.83
2019-03-31T15:35:38.897Z,15.37
2019-03-31T15:38:08.993Z,14.67
2019-03-31T15:40:39.376Z,14.20
2019-03-31T15:43:08.558Z,13.37
2019-03-31T15:45:39.543Z,13.33
2019-03-31T15:48:08.969Z,14.03
2019-03-31T15:50:38.209Z,12.83
2019-03-31T15:53:08.465Z,13.70
2019-03-31T15:55:39.009Z,12.13
2019-03-31T15:58:09.282Z,13.87
2019-03-31T16:00:45.147Z,13.37
2019-03-31T16:03:11.586Z,13.07
2019-03-31T16:05:41.157Z,13.07
2019-03-31T16:08:10.841Z,12.73
2019-03-31T16:10:43.450Z,12.33
2019-03-31T16:13:13.071Z,11.23
2019-03-31T16:15:41.980Z,10.70
2019-03-31T16:18:11.937Z,11.30
2019-03-31T16:20:41.487Z,11.27
2019-03-31T16:23:10.390Z,11.10
2019-03-31T16:25:43.429Z,12.13
2019-03-31T16:28:13.013Z,12.27
2019-03-31T16:30:42.185Z,12.83
2019-03-31T16:33:12.034Z,11.27
2019-03-31T16:35:41.285Z,13.77
2019-03-31T16:38:10.457Z,12.20
2019-03-31T16:40:40.121Z,13.23
2019-03-31T16:43:09.682Z,11.27
2019-03-31T16:45:38.601Z,10.50
2019-03-31T16:48:09.217Z,10.67
2019-03-31T16:50:39.115Z,9.67
2019-03-31T16:53:08.700Z,11.00
2019-03-31T16:55:37.624Z,10.47
2019-03-31T16:58:09.486Z,10.03
2019-03-31T17:00:41.337Z,10.30
2019-03-31T17:03:10.927Z,9.67
2019-03-31T17:05:42.825Z,10.53
2019-03-31T17:08:13.546Z,9.83
2019-03-31T17:10:43.176Z,9.87
2019-03-31T17:13:12.562Z,9.37
2019-03-31T17:15:42.271Z,9.60
2019-03-31T17:18:11.931Z,10.37
2019-03-31T17:20:42.060Z,9.93
2019-03-31T17:23:11.938Z,10.30
2019-03-31T17:25:41.737Z,9.13
2019-03-31T17:28:11.574Z,8.60
2019-03-31T17:30:40.756Z,9.70
2019-03-31T17:33:10.313Z,8.70
2019-03-31T17:35:40.395Z,8.77
2019-03-31T17:38:12.336Z,8.33
2019-03-31T17:40:42.066Z,8.80
2019-03-31T17:43:11.932Z,9.63
2019-03-31T17:45:43.358Z,10.47
2019-03-31T17:48:13.040Z,9.17
2019-03-31T17:50:43.253Z,9.07
2019-03-31T17:53:13.194Z,9.67
2019-03-31T17:55:42.770Z,10.23
2019-03-31T17:58:12.809Z,9.90
2019-03-31T18:00:42.639Z,9.43
2019-03-31T18:03:15.475Z,9.63
2019-03-31T18:05:44.072Z,10.33
2019-03-31T18:08:13.130Z,8.83
2019-03-31T18:10:42.709Z,9.63
2019-03-31T18:13:12.602Z,9.33
2019-03-31T18:15:42.295Z,8.97
2019-03-31T18:18:12.021Z,9.80
2019-03-31T18:20:42.257Z,9.73
2019-03-31T18:23:11.927Z,10.00
2019-03-31T18:25:41.462Z,9.17
2019-03-31T18:28:10.844Z,8.50
2019-03-31T18:30:42.336Z,9.30
2019-03-31T18:33:12.663Z,8.37
2019-03-31T18:35:42.766Z,8.83
2019-03-31T18:38:12.755Z,9.03
2019-03-31T18:40:42.199Z,8.83
2019-03-31T18:43:12.750Z,9.10
2019-03-31T18:45:43.041Z,9.17
2019-03-31T18:48:13.309Z,8.83
2019-03-31T18:50:43.891Z,9.70
2019-03-31T18:53:20.379Z,9.13
2019-03-31T18:56:09.562Z,8.77
2019-03-31T18:58:56.340Z,9.90
2019-03-31T19:01:36.528Z,9.57
2019-03-31T19:04:35.616Z,8.27
2019-03-31T19:07:33.839Z,8.77
2019-03-31T19:10:24.535Z,8.27
2019-03-31T19:12:59.192Z,8.20
2019-03-31T19:15:48.285Z,8.00
2019-03-31T19:18:32.996Z,8.23
2019-03-31T19:21:15.188Z,8.80
2019-03-31T19:23:56.443Z,7.73
2019-03-31T19:27:02.746Z,8.23
2019-03-31T19:30:03.940Z,8.97
2019-03-31T19:32:47.992Z,8.57
2019-03-31T19:35:43.607Z,8.73
2019-03-31T19:38:33.901Z,7.90
2019-03-31T19:41:18.504Z,8.17
2019-03-31T19:44:05.597Z,8.00
2019-03-31T19:46:52.656Z,8.23
2019-03-31T19:49:52.414Z,6.93
2019-03-31T19:52:51.883Z,8.33
2019-03-31T19:55:39.602Z,8.13
2019-03-31T19:58:37.883Z,9.50
2019-03-31T20:01:44.107Z,11.07
2019-03-31T20:04:45.665Z,12.50
2019-03-31T20:07:34.870Z,12.17
2019-03-31T20:10:27.827Z,11.73
2019-03-31T20:13:31.795Z,9.97
2019-03-31T20:16:23.460Z,10.80
2019-03-31T20:19:06.815Z,10.70
2019-03-31T20:21:43.389Z,11.40
2019-03-31T20:24:29.567Z,8.70
2019-03-31T20:27:33.111Z,8.83
2019-03-31T20:30:21.327Z,8.17
2019-03-31T20:33:14.876Z,7.60
2019-03-31T20:36:06.071Z,7.43
2019-03-31T20:38:41.375Z,6.63
2019-03-31T20:41:35.467Z,7.37
2019-03-31T20:44:06.081Z,7.10
2019-03-31T20:46:36.153Z,7.10
2019-03-31T20:49:06.751Z,7.10
2019-03-31T20:51:37.455Z,7.23
2019-03-31T20:54:08.823Z,7.00
2019-03-31T20:56:39.910Z,6.60
2019-03-31T20:59:10.356Z,7.17
2019-03-31T21:01:39.775Z,7.17
2019-03-31T21:04:10.193Z,7.37
2019-03-31T21:06:40.732Z,7.07
2019-03-31T21:09:11.283Z,7.60
2019-03-31T21:11:40.880Z,7.30
2019-03-31T21:14:11.418Z,7.30
2019-03-31T21:16:40.811Z,9.37
2019-03-31T21:19:11.042Z,8.07
2019-03-31T21:21:40.739Z,7.97
2019-03-31T21:24:11.021Z,8.27
2019-03-31T21:26:40.476Z,9.00
2019-03-31T21:29:11.170Z,7.67
2019-03-31T21:31:40.502Z,6.80
2019-03-31T21:34:10.648Z,6.83
2019-03-31T21:36:42.356Z,7.40
2019-03-31T21:39:11.695Z,6.67
2019-03-31T21:41:41.170Z,7.23
2019-03-31T21:44:11.659Z,6.70
2019-03-31T21:46:41.039Z,6.97
2019-03-31T21:49:11.384Z,7.57
2019-03-31T21:51:41.143Z,6.43
2019-03-31T21:54:11.420Z,7.07
2019-03-31T21:56:40.767Z,7.23
2019-03-31T21:59:12.385Z,6.10
2019-03-31T22:01:41.682Z,6.73
2019-03-31T22:04:12.156Z,6.80
2019-03-31T22:06:42.554Z,6.43
2019-03-31T22:09:11.960Z,7.00
2019-03-31T22:11:42.265Z,6.80
2019-03-31T22:14:12.765Z,6.43
2019-03-31T22:16:42.086Z,6.60
2019-03-31T22:19:12.340Z,6.27
2019-03-31T22:21:42.963Z,7.17
2019-03-31T22:24:13.254Z,6.30
2019-03-31T22:26:43.556Z,6.37
2019-03-31T22:29:14.118Z,6.33
2019-03-31T22:31:44.482Z,6.20
2019-03-31T22:34:13.971Z,7.10
2019-03-31T22:36:43.710Z,6.20
2019-03-31T22:39:13.947Z,6.47
2019-03-31T22:41:44.511Z,5.60
2019-03-31T22:44:14.387Z,6.63
2019-03-31T22:46:54.216Z,5.53
2019-03-31T22:49:16.567Z,6.30
2019-03-31T22:51:47.247Z,5.50
2019-03-31T22:54:16.560Z,4.97
2019-03-31T22:56:46.007Z,5.30
2019-03-31T23:01:52.400Z,6.20
2019-03-31T23:04:21.959Z,6.00
2019-03-31T23:06:53.495Z,5.90
2019-03-31T23:09:23.900Z,5.23
2019-03-31T23:11:54.455Z,4.53
2019-03-31T23:14:25.056Z,5.30
2019-03-31T23:16:54.460Z,5.30
2019-03-31T23:19:24.629Z,4.97
2019-03-31T23:21:54.282Z,5.03
2019-03-31T23:24:24.474Z,5.10
2019-03-31T23:26:54.084Z,5.13
2019-03-31T23:29:24.756Z,4.80
2019-03-31T23:31:55.320Z,5.10
2019-03-31T23:34:25.625Z,5.47
2019-03-31T23:36:56.150Z,4.87
2019-03-31T23:39:26.297Z,5.70
2019-03-31T23:41:56.413Z,4.90
2019-03-31T23:44:26.878Z,4.60
2019-03-31T23:46:57.086Z,5.17
2019-03-31T23:49:27.172Z,5.00
2019-03-31T23:51:56.909Z,4.83
2019-03-31T23:54:26.264Z,4.73
2019-03-31T23:56:56.392Z,5.37
2019-03-31T23:59:27.025Z,4.50
